sensor_id;sensor_type;location;lat;lon;timestamp;P1;durP1;ratioP1;P2;durP2;ratioP2
32096;SDS011;18610;49.916;8.284;2023-03-20T00:00:16;8.40;;;4.32;;
32096;SDS011;18610;49.916;8.284;2023-03-20T00:02:49;8.40;;;4.38;;
32096;SDS011;18610;49.916;8.284;2023-03-20T00:05:17;6.40;;;4.32;;
32096;SDS011;18610;49.916;8.284;2023-03-20T00:07:46;6.35;;;4.32;;
32096;SDS011;18610;49.916;8.284;2023-03-20T00:10:13;8.75;;;4.63;;
32096;SDS011;18610;49.916;8.284;2023-03-20T00:12:41;11.23;;;4.97;;
32096;SDS011;18610;49.916;8.284;2023-03-20T00:15:15;9.63;;;5.45;;
32096;SDS011;18610;49.916;8.284;2023-03-20T00:17:49;5.68;;;4.78;;
32096;SDS011;18610;49.916;8.284;2023-03-20T00:20:16;8.80;;;4.90;;
32096;SDS011;18610;49.916;8.284;2023-03-20T00:22:43;8.15;;;5.47;;
32096;SDS011;18610;49.916;8.284;2023-03-20T00:25:12;8.63;;;4.60;;
32096;SDS011;18610;49.916;8.284;2023-03-20T00:27:40;6.68;;;4.82;;
32096;SDS011;18610;49.916;8.284;2023-03-20T00:30:12;7.50;;;4.82;;
32096;SDS011;18610;49.916;8.284;2023-03-20T00:32:45;9.45;;;5.32;;
32096;SDS011;18610;49.916;8.284;2023-03-20T00:35:18;6.88;;;4.95;;
32096;SDS011;18610;49.916;8.284;2023-03-20T00:37:49;7.80;;;5.28;;
32096;SDS011;18610;49.916;8.284;2023-03-20T00:40:17;7.47;;;5.25;;
32096;SDS011;18610;49.916;8.284;2023-03-20T00:42:44;8.93;;;5.43;;
32096;SDS011;18610;49.916;8.284;2023-03-20T00:45:16;7.25;;;5.57;;
32096;SDS011;18610;49.916;8.284;2023-03-20T00:47:45;8.52;;;6.20;;
32096;SDS011;18610;49.916;8.284;2023-03-20T00:50:14;7.63;;;5.72;;
32096;SDS011;18610;49.916;8.284;2023-03-20T00:52:44;10.82;;;6.82;;
32096;SDS011;18610;49.916;8.284;2023-03-20T00:55:10;14.68;;;6.90;;
32096;SDS011;18610;49.916;8.284;2023-03-20T00:57:38;9.75;;;6.45;;
32096;SDS011;18610;49.916;8.284;2023-03-20T01:00:12;8.88;;;6.57;;
32096;SDS011;18610;49.916;8.284;2023-03-20T01:02:46;9.55;;;6.13;;
32096;SDS011;18610;49.916;8.284;2023-03-20T01:05:13;11.25;;;6.82;;
32096;SDS011;18610;49.916;8.284;2023-03-20T01:07:40;9.48;;;6.38;;
32096;SDS011;18610;49.916;8.284;2023-03-20T01:10:10;8.63;;;7.20;;
32096;SDS011;18610;49.916;8.284;2023-03-20T01:12:37;15.15;;;7.25;;
32096;SDS011;18610;49.916;8.284;2023-03-20T01:15:08;9.02;;;7.45;;
32096;SDS011;18610;49.916;8.284;2023-03-20T01:17:42;10.70;;;7.47;;
32096;SDS011;18610;49.916;8.284;2023-03-20T01:20:09;11.80;;;7.47;;
32096;SDS011;18610;49.916;8.284;2023-03-20T01:22:40;12.77;;;7.10;;
32096;SDS011;18610;49.916;8.284;2023-03-20T01:25:07;10.25;;;7.55;;
32096;SDS011;18610;49.916;8.284;2023-03-20T01:27:36;11.20;;;7.00;;
32096;SDS011;18610;49.916;8.284;2023-03-20T01:30:05;10.23;;;6.90;;
32096;SDS011;18610;49.916;8.284;2023-03-20T01:32:41;9.30;;;6.85;;
32096;SDS011;18610;49.916;8.284;2023-03-20T01:35:11;9.68;;;7.00;;
32096;SDS011;18610;49.916;8.284;2023-03-20T01:37:38;14.77;;;7.35;;
32096;SDS011;18610;49.916;8.284;2023-03-20T01:40:08;10.05;;;7.75;;
32096;SDS011;18610;49.916;8.284;2023-03-20T01:42:44;11.68;;;6.88;;
32096;SDS011;18610;49.916;8.284;2023-03-20T01:45:13;10.35;;;7.57;;
32096;SDS011;18610;49.916;8.284;2023-03-20T01:47:43;10.35;;;7.32;;
32096;SDS011;18610;49.916;8.284;2023-03-20T01:50:24;9.85;;;7.25;;
32096;SDS011;18610;49.916;8.284;2023-03-20T01:52:54;10.77;;;7.03;;
32096;SDS011;18610;49.916;8.284;2023-03-20T01:55:29;9.35;;;6.78;;
32096;SDS011;18610;49.916;8.284;2023-03-20T01:57:57;9.52;;;7.20;;
32096;SDS011;18610;49.916;8.284;2023-03-20T02:00:28;9.80;;;7.93;;
32096;SDS011;18610;49.916;8.284;2023-03-20T02:02:56;10.45;;;7.43;;
32096;SDS011;18610;49.916;8.284;2023-03-20T02:05:23;9.68;;;7.72;;
32096;SDS011;18610;49.916;8.284;2023-03-20T02:07:55;11.20;;;8.38;;
32096;SDS011;18610;49.916;8.284;2023-03-20T02:10:30;11.00;;;7.35;;
32096;SDS011;18610;49.916;8.284;2023-03-20T02:12:57;10.00;;;7.38;;
32096;SDS011;18610;49.916;8.284;2023-03-20T02:15:26;13.27;;;8.40;;
32096;SDS011;18610;49.916;8.284;2023-03-20T02:17:55;10.57;;;7.90;;
32096;SDS011;18610;49.916;8.284;2023-03-20T02:20:26;15.73;;;9.05;;
32096;SDS011;18610;49.916;8.284;2023-03-20T02:29:13;12.60;;;9.20;;
32096;SDS011;18610;49.916;8.284;2023-03-20T02:35:30;12.20;;;9.15;;
32096;SDS011;18610;49.916;8.284;2023-03-20T02:40:52;15.30;;;9.38;;
32096;SDS011;18610;49.916;8.284;2023-03-20T02:43:27;12.18;;;8.80;;
32096;SDS011;18610;49.916;8.284;2023-03-20T02:46:07;13.52;;;10.38;;
32096;SDS011;18610;49.916;8.284;2023-03-20T02:48:42;12.95;;;9.07;;
32096;SDS011;18610;49.916;8.284;2023-03-20T02:51:15;13.57;;;9.98;;
32096;SDS011;18610;49.916;8.284;2023-03-20T02:53:51;13.25;;;9.50;;
32096;SDS011;18610;49.916;8.284;2023-03-20T02:56:27;15.65;;;10.48;;
32096;SDS011;18610;49.916;8.284;2023-03-20T02:59:00;13.27;;;10.20;;
32096;SDS011;18610;49.916;8.284;2023-03-20T03:01:34;15.30;;;10.35;;
32096;SDS011;18610;49.916;8.284;2023-03-20T03:04:03;12.65;;;8.95;;
32096;SDS011;18610;49.916;8.284;2023-03-20T03:06:34;19.85;;;11.00;;
32096;SDS011;18610;49.916;8.284;2023-03-20T03:09:05;14.43;;;11.25;;
32096;SDS011;18610;49.916;8.284;2023-03-20T03:11:38;17.08;;;11.48;;
32096;SDS011;18610;49.916;8.284;2023-03-20T03:14:10;15.18;;;10.70;;
32096;SDS011;18610;49.916;8.284;2023-03-20T03:16:42;16.58;;;10.75;;
32096;SDS011;18610;49.916;8.284;2023-03-20T03:19:11;14.27;;;10.02;;
32096;SDS011;18610;49.916;8.284;2023-03-20T03:21:40;12.98;;;9.45;;
32096;SDS011;18610;49.916;8.284;2023-03-20T03:24:15;17.38;;;10.80;;
32096;SDS011;18610;49.916;8.284;2023-03-20T03:26:51;15.02;;;10.35;;
32096;SDS011;18610;49.916;8.284;2023-03-20T03:29:18;14.35;;;10.55;;
32096;SDS011;18610;49.916;8.284;2023-03-20T03:31:48;11.23;;;9.15;;
32096;SDS011;18610;49.916;8.284;2023-03-20T03:34:16;15.27;;;10.45;;
32096;SDS011;18610;49.916;8.284;2023-03-20T03:36:47;17.52;;;11.10;;
32096;SDS011;18610;49.916;8.284;2023-03-20T03:39:22;13.13;;;10.05;;
32096;SDS011;18610;49.916;8.284;2023-03-20T03:41:54;16.00;;;10.85;;
32096;SDS011;18610;49.916;8.284;2023-03-20T03:44:30;15.85;;;11.73;;
32096;SDS011;18610;49.916;8.284;2023-03-20T03:47:06;12.27;;;10.13;;
32096;SDS011;18610;49.916;8.284;2023-03-20T03:49:36;14.57;;;10.85;;
32096;SDS011;18610;49.916;8.284;2023-03-20T03:52:08;15.00;;;11.13;;
32096;SDS011;18610;49.916;8.284;2023-03-20T03:54:39;15.77;;;11.63;;
32096;SDS011;18610;49.916;8.284;2023-03-20T03:57:09;17.63;;;11.60;;
32096;SDS011;18610;49.916;8.284;2023-03-20T03:59:38;15.25;;;11.48;;
32096;SDS011;18610;49.916;8.284;2023-03-20T04:02:08;16.73;;;12.10;;
32096;SDS011;18610;49.916;8.284;2023-03-20T04:04:37;20.00;;;11.75;;
32096;SDS011;18610;49.916;8.284;2023-03-20T04:07:08;17.92;;;12.32;;
32096;SDS011;18610;49.916;8.284;2023-03-20T04:09:35;15.55;;;11.68;;
32096;SDS011;18610;49.916;8.284;2023-03-20T04:12:03;16.23;;;12.07;;
32096;SDS011;18610;49.916;8.284;2023-03-20T04:14:31;18.25;;;11.90;;
32096;SDS011;18610;49.916;8.284;2023-03-20T04:16:57;15.32;;;11.50;;
32096;SDS011;18610;49.916;8.284;2023-03-20T04:19:25;19.15;;;13.07;;
32096;SDS011;18610;49.916;8.284;2023-03-20T04:21:51;18.60;;;12.10;;
32096;SDS011;18610;49.916;8.284;2023-03-20T04:24:19;16.00;;;12.57;;
32096;SDS011;18610;49.916;8.284;2023-03-20T04:26:46;22.38;;;12.65;;
32096;SDS011;18610;49.916;8.284;2023-03-20T04:29:14;20.38;;;12.23;;
32096;SDS011;18610;49.916;8.284;2023-03-20T04:31:40;19.00;;;13.10;;
32096;SDS011;18610;49.916;8.284;2023-03-20T04:34:07;25.15;;;16.17;;
32096;SDS011;18610;49.916;8.284;2023-03-20T04:36:34;22.38;;;15.38;;
32096;SDS011;18610;49.916;8.284;2023-03-20T04:39:00;24.52;;;16.17;;
32096;SDS011;18610;49.916;8.284;2023-03-20T04:41:27;23.45;;;15.27;;
32096;SDS011;18610;49.916;8.284;2023-03-20T04:43:54;20.20;;;13.60;;
32096;SDS011;18610;49.916;8.284;2023-03-20T04:46:22;24.27;;;16.23;;
32096;SDS011;18610;49.916;8.284;2023-03-20T04:48:48;29.70;;;16.85;;
32096;SDS011;18610;49.916;8.284;2023-03-20T04:51:15;30.92;;;18.77;;
32096;SDS011;18610;49.916;8.284;2023-03-20T04:53:42;33.40;;;17.92;;
32096;SDS011;18610;49.916;8.284;2023-03-20T04:56:09;27.58;;;17.10;;
32096;SDS011;18610;49.916;8.284;2023-03-20T04:58:36;28.58;;;16.85;;
32096;SDS011;18610;49.916;8.284;2023-03-20T05:01:03;31.15;;;16.92;;
32096;SDS011;18610;49.916;8.284;2023-03-20T05:03:31;26.90;;;16.83;;
32096;SDS011;18610;49.916;8.284;2023-03-20T05:05:58;32.95;;;18.90;;
32096;SDS011;18610;49.916;8.284;2023-03-20T05:08:25;29.15;;;19.27;;
32096;SDS011;18610;49.916;8.284;2023-03-20T05:10:51;33.10;;;20.45;;
32096;SDS011;18610;49.916;8.284;2023-03-20T05:13:18;43.80;;;24.77;;
32096;SDS011;18610;49.916;8.284;2023-03-20T05:15:45;40.38;;;23.20;;
32096;SDS011;18610;49.916;8.284;2023-03-20T05:18:12;45.67;;;24.42;;
32096;SDS011;18610;49.916;8.284;2023-03-20T05:20:41;45.17;;;25.50;;
32096;SDS011;18610;49.916;8.284;2023-03-20T05:23:08;49.45;;;26.83;;
32096;SDS011;18610;49.916;8.284;2023-03-20T05:25:34;53.50;;;28.95;;
32096;SDS011;18610;49.916;8.284;2023-03-20T05:28:01;51.25;;;29.13;;
32096;SDS011;18610;49.916;8.284;2023-03-20T05:30:28;61.60;;;29.77;;
32096;SDS011;18610;49.916;8.284;2023-03-20T05:32:55;58.03;;;28.50;;
32096;SDS011;18610;49.916;8.284;2023-03-20T05:35:22;51.78;;;27.80;;
32096;SDS011;18610;49.916;8.284;2023-03-20T05:37:50;46.97;;;27.30;;
32096;SDS011;18610;49.916;8.284;2023-03-20T05:40:17;47.70;;;27.77;;
32096;SDS011;18610;49.916;8.284;2023-03-20T05:42:48;44.80;;;26.45;;
32096;SDS011;18610;49.916;8.284;2023-03-20T05:45:15;49.15;;;26.83;;
32096;SDS011;18610;49.916;8.284;2023-03-20T05:47:41;48.35;;;27.73;;
32096;SDS011;18610;49.916;8.284;2023-03-20T05:50:09;51.72;;;28.73;;
32096;SDS011;18610;49.916;8.284;2023-03-20T05:52:36;54.90;;;29.17;;
32096;SDS011;18610;49.916;8.284;2023-03-20T05:55:05;57.15;;;31.70;;
32096;SDS011;18610;49.916;8.284;2023-03-20T05:57:32;57.67;;;31.33;;
32096;SDS011;18610;49.916;8.284;2023-03-20T05:59:59;57.40;;;31.58;;
32096;SDS011;18610;49.916;8.284;2023-03-20T06:02:25;60.45;;;33.90;;
32096;SDS011;18610;49.916;8.284;2023-03-20T06:04:52;65.60;;;34.03;;
32096;SDS011;18610;49.916;8.284;2023-03-20T06:07:19;57.65;;;31.52;;
32096;SDS011;18610;49.916;8.284;2023-03-20T06:09:45;64.35;;;34.17;;
32096;SDS011;18610;49.916;8.284;2023-03-20T06:12:13;65.45;;;35.13;;
32096;SDS011;18610;49.916;8.284;2023-03-20T06:14:41;64.05;;;34.10;;
32096;SDS011;18610;49.916;8.284;2023-03-20T06:17:07;63.55;;;35.28;;
32096;SDS011;18610;49.916;8.284;2023-03-20T06:19:34;61.70;;;33.35;;
32096;SDS011;18610;49.916;8.284;2023-03-20T06:22:02;71.38;;;36.70;;
32096;SDS011;18610;49.916;8.284;2023-03-20T06:24:29;59.67;;;33.08;;
32096;SDS011;18610;49.916;8.284;2023-03-20T06:26:56;65.38;;;33.90;;
32096;SDS011;18610;49.916;8.284;2023-03-20T06:29:24;73.50;;;36.60;;
32096;SDS011;18610;49.916;8.284;2023-03-20T06:31:52;64.18;;;34.78;;
32096;SDS011;18610;49.916;8.284;2023-03-20T06:34:19;63.78;;;35.67;;
32096;SDS011;18610;49.916;8.284;2023-03-20T06:36:46;65.35;;;35.78;;
32096;SDS011;18610;49.916;8.284;2023-03-20T06:39:13;64.53;;;34.88;;
32096;SDS011;18610;49.916;8.284;2023-03-20T06:41:40;62.28;;;34.35;;
32096;SDS011;18610;49.916;8.284;2023-03-20T06:44:06;64.05;;;34.65;;
32096;SDS011;18610;49.916;8.284;2023-03-20T06:46:35;67.25;;;37.13;;
32096;SDS011;18610;49.916;8.284;2023-03-20T06:49:01;72.97;;;38.30;;
32096;SDS011;18610;49.916;8.284;2023-03-20T06:51:28;73.38;;;37.17;;
32096;SDS011;18610;49.916;8.284;2023-03-20T06:53:55;74.18;;;37.10;;
32096;SDS011;18610;49.916;8.284;2023-03-20T06:56:22;67.63;;;35.45;;
32096;SDS011;18610;49.916;8.284;2023-03-20T06:58:49;66.85;;;35.97;;
32096;SDS011;18610;49.916;8.284;2023-03-20T07:01:16;71.47;;;36.97;;
32096;SDS011;18610;49.916;8.284;2023-03-20T07:03:45;82.88;;;40.83;;
32096;SDS011;18610;49.916;8.284;2023-03-20T07:06:12;69.78;;;37.35;;
32096;SDS011;18610;49.916;8.284;2023-03-20T07:08:39;70.97;;;38.40;;
32096;SDS011;18610;49.916;8.284;2023-03-20T07:11:06;72.78;;;38.45;;
32096;SDS011;18610;49.916;8.284;2023-03-20T07:13:33;80.28;;;40.60;;
32096;SDS011;18610;49.916;8.284;2023-03-20T07:16:00;77.32;;;41.53;;
32096;SDS011;18610;49.916;8.284;2023-03-20T07:18:28;82.90;;;41.75;;
32096;SDS011;18610;49.916;8.284;2023-03-20T07:20:58;79.70;;;42.03;;
32096;SDS011;18610;49.916;8.284;2023-03-20T07:23:27;79.40;;;42.55;;
32096;SDS011;18610;49.916;8.284;2023-03-20T07:25:53;92.55;;;45.75;;
32096;SDS011;18610;49.916;8.284;2023-03-20T07:28:20;93.97;;;47.33;;
32096;SDS011;18610;49.916;8.284;2023-03-20T07:30:47;84.72;;;44.38;;
32096;SDS011;18610;49.916;8.284;2023-03-20T07:33:13;90.50;;;48.13;;
32096;SDS011;18610;49.916;8.284;2023-03-20T07:35:40;86.85;;;47.28;;
32096;SDS011;18610;49.916;8.284;2023-03-20T07:38:09;100.05;;;48.70;;
32096;SDS011;18610;49.916;8.284;2023-03-20T07:40:36;98.68;;;50.22;;
32096;SDS011;18610;49.916;8.284;2023-03-20T07:43:03;104.68;;;52.58;;
32096;SDS011;18610;49.916;8.284;2023-03-20T07:45:30;109.25;;;55.92;;
32096;SDS011;18610;49.916;8.284;2023-03-20T07:47:56;109.28;;;54.15;;
32096;SDS011;18610;49.916;8.284;2023-03-20T07:50:23;105.38;;;54.67;;
32096;SDS011;18610;49.916;8.284;2023-03-20T07:52:50;103.93;;;54.33;;
32096;SDS011;18610;49.916;8.284;2023-03-20T07:55:18;108.95;;;57.35;;
32096;SDS011;18610;49.916;8.284;2023-03-20T07:57:46;102.03;;;50.50;;
32096;SDS011;18610;49.916;8.284;2023-03-20T08:00:15;105.78;;;54.25;;
32096;SDS011;18610;49.916;8.284;2023-03-20T08:02:43;98.63;;;53.45;;
32096;SDS011;18610;49.916;8.284;2023-03-20T08:05:09;98.95;;;51.38;;
32096;SDS011;18610;49.916;8.284;2023-03-20T08:07:36;106.07;;;51.60;;
32096;SDS011;18610;49.916;8.284;2023-03-20T08:10:03;102.63;;;52.60;;
32096;SDS011;18610;49.916;8.284;2023-03-20T08:12:32;105.82;;;52.58;;
32096;SDS011;18610;49.916;8.284;2023-03-20T08:14:59;100.35;;;50.55;;
32096;SDS011;18610;49.916;8.284;2023-03-20T08:17:26;100.97;;;50.85;;
32096;SDS011;18610;49.916;8.284;2023-03-20T08:19:53;101.35;;;50.45;;
32096;SDS011;18610;49.916;8.284;2023-03-20T08:22:20;97.93;;;50.30;;
32096;SDS011;18610;49.916;8.284;2023-03-20T08:24:46;94.93;;;47.28;;
32096;SDS011;18610;49.916;8.284;2023-03-20T08:27:13;94.45;;;51.03;;
32096;SDS011;18610;49.916;8.284;2023-03-20T08:29:42;96.78;;;48.00;;
32096;SDS011;18610;49.916;8.284;2023-03-20T08:32:09;88.07;;;47.28;;
32096;SDS011;18610;49.916;8.284;2023-03-20T08:34:36;82.65;;;43.42;;
32096;SDS011;18610;49.916;8.284;2023-03-20T08:37:02;86.15;;;44.85;;
32096;SDS011;18610;49.916;8.284;2023-03-20T08:39:29;86.15;;;44.08;;
32096;SDS011;18610;49.916;8.284;2023-03-20T08:41:57;77.85;;;42.45;;
32096;SDS011;18610;49.916;8.284;2023-03-20T08:44:23;83.97;;;44.22;;
32096;SDS011;18610;49.916;8.284;2023-03-20T08:46:54;81.68;;;41.72;;
32096;SDS011;18610;49.916;8.284;2023-03-20T08:49:20;81.47;;;42.85;;
32096;SDS011;18610;49.916;8.284;2023-03-20T08:51:47;79.35;;;42.42;;
32096;SDS011;18610;49.916;8.284;2023-03-20T08:54:14;79.95;;;42.00;;
32096;SDS011;18610;49.916;8.284;2023-03-20T08:56:42;74.05;;;38.55;;
32096;SDS011;18610;49.916;8.284;2023-03-20T08:59:09;74.68;;;40.83;;
32096;SDS011;18610;49.916;8.284;2023-03-20T09:01:36;76.20;;;41.13;;
32096;SDS011;18610;49.916;8.284;2023-03-20T09:04:04;70.90;;;37.92;;
32096;SDS011;18610;49.916;8.284;2023-03-20T09:06:31;58.97;;;34.20;;
32096;SDS011;18610;49.916;8.284;2023-03-20T09:09:02;61.67;;;36.58;;
32096;SDS011;18610;49.916;8.284;2023-03-20T09:11:29;70.07;;;38.13;;
32096;SDS011;18610;49.916;8.284;2023-03-20T09:13:56;72.93;;;37.63;;
32096;SDS011;18610;49.916;8.284;2023-03-20T09:16:23;66.88;;;35.30;;
32096;SDS011;18610;49.916;8.284;2023-03-20T09:18:50;54.03;;;31.00;;
32096;SDS011;18610;49.916;8.284;2023-03-20T09:21:19;55.08;;;30.67;;
32096;SDS011;18610;49.916;8.284;2023-03-20T09:23:46;51.15;;;27.05;;
32096;SDS011;18610;49.916;8.284;2023-03-20T09:26:13;48.17;;;26.67;;
32096;SDS011;18610;49.916;8.284;2023-03-20T09:28:39;41.08;;;24.27;;
32096;SDS011;18610;49.916;8.284;2023-03-20T09:31:06;40.25;;;22.70;;
32096;SDS011;18610;49.916;8.284;2023-03-20T09:33:33;36.72;;;20.70;;
32096;SDS011;18610;49.916;8.284;2023-03-20T09:36:00;35.75;;;19.88;;
32096;SDS011;18610;49.916;8.284;2023-03-20T09:38:28;36.60;;;19.75;;
32096;SDS011;18610;49.916;8.284;2023-03-20T09:40:55;30.33;;;20.17;;
32096;SDS011;18610;49.916;8.284;2023-03-20T09:43:27;33.30;;;19.15;;
32096;SDS011;18610;49.916;8.284;2023-03-20T09:46:04;37.67;;;20.08;;
32096;SDS011;18610;49.916;8.284;2023-03-20T09:48:39;33.70;;;20.25;;
32096;SDS011;18610;49.916;8.284;2023-03-20T09:51:14;30.52;;;17.52;;
32096;SDS011;18610;49.916;8.284;2023-03-20T09:53:48;34.75;;;19.52;;
32096;SDS011;18610;49.916;8.284;2023-03-20T09:56:20;33.08;;;18.85;;
32096;SDS011;18610;49.916;8.284;2023-03-20T09:58:50;39.17;;;22.02;;
32096;SDS011;18610;49.916;8.284;2023-03-20T10:01:21;44.67;;;26.70;;
32096;SDS011;18610;49.916;8.284;2023-03-20T10:03:52;48.30;;;27.05;;
32096;SDS011;18610;49.916;8.284;2023-03-20T10:06:24;44.53;;;25.50;;
32096;SDS011;18610;49.916;8.284;2023-03-20T10:08:52;45.03;;;25.17;;
32096;SDS011;18610;49.916;8.284;2023-03-20T10:14:21;47.20;;;26.05;;
32096;SDS011;18610;49.916;8.284;2023-03-20T10:16:54;37.65;;;24.38;;
32096;SDS011;18610;49.916;8.284;2023-03-20T10:19:28;50.17;;;27.75;;
32096;SDS011;18610;49.916;8.284;2023-03-20T10:21:56;39.25;;;23.08;;
32096;SDS011;18610;49.916;8.284;2023-03-20T10:24:29;25.50;;;16.30;;
32096;SDS011;18610;49.916;8.284;2023-03-20T10:27:01;34.53;;;16.95;;
32096;SDS011;18610;49.916;8.284;2023-03-20T10:29:37;29.65;;;14.55;;
32096;SDS011;18610;49.916;8.284;2023-03-20T10:32:11;22.23;;;12.70;;
32096;SDS011;18610;49.916;8.284;2023-03-20T10:34:47;23.65;;;11.30;;
32096;SDS011;18610;49.916;8.284;2023-03-20T10:37:25;15.93;;;9.77;;
32096;SDS011;18610;49.916;8.284;2023-03-20T10:42:43;14.25;;;9.27;;
32096;SDS011;18610;49.916;8.284;2023-03-20T10:45:17;16.08;;;9.15;;
32096;SDS011;18610;49.916;8.284;2023-03-20T10:47:54;17.03;;;9.90;;
32096;SDS011;18610;49.916;8.284;2023-03-20T10:50:26;12.15;;;8.32;;
32096;SDS011;18610;49.916;8.284;2023-03-20T10:52:57;13.23;;;8.23;;
32096;SDS011;18610;49.916;8.284;2023-03-20T10:55:29;12.02;;;8.63;;
32096;SDS011;18610;49.916;8.284;2023-03-20T10:58:01;10.90;;;7.80;;
32096;SDS011;18610;49.916;8.284;2023-03-20T11:00:31;12.38;;;7.70;;
32096;SDS011;18610;49.916;8.284;2023-03-20T11:02:58;13.85;;;8.65;;
32096;SDS011;18610;49.916;8.284;2023-03-20T11:05:27;11.32;;;7.78;;
32096;SDS011;18610;49.916;8.284;2023-03-20T11:08:00;14.93;;;8.80;;
32096;SDS011;18610;49.916;8.284;2023-03-20T11:10:31;10.65;;;7.03;;
32096;SDS011;18610;49.916;8.284;2023-03-20T11:13:03;12.70;;;7.75;;
32096;SDS011;18610;49.916;8.284;2023-03-20T11:15:40;13.57;;;8.48;;
32096;SDS011;18610;49.916;8.284;2023-03-20T11:18:09;13.18;;;8.60;;
32096;SDS011;18610;49.916;8.284;2023-03-20T11:20:38;16.02;;;8.25;;
32096;SDS011;18610;49.916;8.284;2023-03-20T11:23:14;14.45;;;8.50;;
32096;SDS011;18610;49.916;8.284;2023-03-20T11:25:48;12.32;;;8.68;;
32096;SDS011;18610;49.916;8.284;2023-03-20T11:28:20;12.00;;;8.10;;
32096;SDS011;18610;49.916;8.284;2023-03-20T11:30:59;12.55;;;7.88;;
32096;SDS011;18610;49.916;8.284;2023-03-20T11:33:28;12.80;;;7.30;;
32096;SDS011;18610;49.916;8.284;2023-03-20T11:35:57;9.32;;;6.55;;
32096;SDS011;18610;49.916;8.284;2023-03-20T11:38:24;12.60;;;6.45;;
32096;SDS011;18610;49.916;8.284;2023-03-20T11:40:55;8.57;;;5.60;;
32096;SDS011;18610;49.916;8.284;2023-03-20T11:43:23;7.43;;;4.60;;
32096;SDS011;18610;49.916;8.284;2023-03-20T11:45:53;7.82;;;5.22;;
32096;SDS011;18610;49.916;8.284;2023-03-20T11:48:23;6.68;;;4.57;;
32096;SDS011;18610;49.916;8.284;2023-03-20T11:50:58;10.10;;;3.88;;
32096;SDS011;18610;49.916;8.284;2023-03-20T11:53:30;5.45;;;3.97;;
32096;SDS011;18610;49.916;8.284;2023-03-20T11:56:01;7.45;;;3.80;;
32096;SDS011;18610;49.916;8.284;2023-03-20T11:58:35;7.63;;;4.47;;
32096;SDS011;18610;49.916;8.284;2023-03-20T12:01:06;7.47;;;4.40;;
32096;SDS011;18610;49.916;8.284;2023-03-20T12:03:41;12.48;;;4.70;;
32096;SDS011;18610;49.916;8.284;2023-03-20T12:06:14;7.57;;;3.90;;
32096;SDS011;18610;49.916;8.284;2023-03-20T12:08:45;8.05;;;4.00;;
32096;SDS011;18610;49.916;8.284;2023-03-20T12:11:27;5.60;;;3.15;;
32096;SDS011;18610;49.916;8.284;2023-03-20T12:14:03;8.18;;;4.45;;
32096;SDS011;18610;49.916;8.284;2023-03-20T12:16:38;6.07;;;4.35;;
32096;SDS011;18610;49.916;8.284;2023-03-20T12:19:08;7.72;;;4.57;;
32096;SDS011;18610;49.916;8.284;2023-03-20T12:21:40;5.45;;;3.72;;
32096;SDS011;18610;49.916;8.284;2023-03-20T12:24:10;10.68;;;3.65;;
32096;SDS011;18610;49.916;8.284;2023-03-20T12:26:47;10.30;;;3.35;;
32096;SDS011;18610;49.916;8.284;2023-03-20T12:29:22;4.85;;;3.00;;
32096;SDS011;18610;49.916;8.284;2023-03-20T12:31:52;4.30;;;3.20;;
32096;SDS011;18610;49.916;8.284;2023-03-20T12:34:23;10.85;;;3.92;;
32096;SDS011;18610;49.916;8.284;2023-03-20T12:36:54;5.68;;;3.40;;
32096;SDS011;18610;49.916;8.284;2023-03-20T12:39:22;7.22;;;3.13;;
32096;SDS011;18610;49.916;8.284;2023-03-20T12:41:57;3.60;;;2.42;;
32096;SDS011;18610;49.916;8.284;2023-03-20T12:44:35;7.80;;;3.58;;
32096;SDS011;18610;49.916;8.284;2023-03-20T12:47:11;8.98;;;3.85;;
32096;SDS011;18610;49.916;8.284;2023-03-20T12:49:50;6.67;;;4.07;;
32096;SDS011;18610;49.916;8.284;2023-03-20T12:52:25;4.22;;;3.05;;
32096;SDS011;18610;49.916;8.284;2023-03-20T12:55:06;7.60;;;3.42;;
32096;SDS011;18610;49.916;8.284;2023-03-20T12:57:44;5.15;;;3.47;;
32096;SDS011;18610;49.916;8.284;2023-03-20T13:00:21;7.97;;;3.78;;
32096;SDS011;18610;49.916;8.284;2023-03-20T13:02:56;5.57;;;3.17;;
32096;SDS011;18610;49.916;8.284;2023-03-20T13:05:32;4.80;;;3.20;;
32096;SDS011;18610;49.916;8.284;2023-03-20T13:08:24;7.15;;;3.90;;
32096;SDS011;18610;49.916;8.284;2023-03-20T13:11:04;10.73;;;4.17;;
32096;SDS011;18610;49.916;8.284;2023-03-20T13:13:39;6.80;;;3.70;;
32096;SDS011;18610;49.916;8.284;2023-03-20T13:16:12;8.65;;;4.32;;
32096;SDS011;18610;49.916;8.284;2023-03-20T13:18:49;9.38;;;4.13;;
32096;SDS011;18610;49.916;8.284;2023-03-20T13:21:24;6.50;;;4.22;;
32096;SDS011;18610;49.916;8.284;2023-03-20T13:24:00;9.05;;;4.55;;
32096;SDS011;18610;49.916;8.284;2023-03-20T13:26:35;8.20;;;4.35;;
32096;SDS011;18610;49.916;8.284;2023-03-20T13:29:10;7.30;;;3.65;;
32096;SDS011;18610;49.916;8.284;2023-03-20T13:31:47;10.25;;;5.07;;
32096;SDS011;18610;49.916;8.284;2023-03-20T13:34:24;6.60;;;3.95;;
32096;SDS011;18610;49.916;8.284;2023-03-20T13:37:02;10.05;;;4.78;;
32096;SDS011;18610;49.916;8.284;2023-03-20T13:39:36;8.40;;;4.30;;
32096;SDS011;18610;49.916;8.284;2023-03-20T13:42:08;7.95;;;4.35;;
32096;SDS011;18610;49.916;8.284;2023-03-20T13:44:40;8.43;;;5.50;;
32096;SDS011;18610;49.916;8.284;2023-03-20T13:47:09;11.85;;;5.32;;
32096;SDS011;18610;49.916;8.284;2023-03-20T13:49:38;9.43;;;4.75;;
32096;SDS011;18610;49.916;8.284;2023-03-20T13:52:11;8.75;;;5.22;;
32096;SDS011;18610;49.916;8.284;2023-03-20T13:54:53;11.80;;;5.90;;
32096;SDS011;18610;49.916;8.284;2023-03-20T13:57:40;11.95;;;5.70;;
32096;SDS011;18610;49.916;8.284;2023-03-20T14:00:18;12.73;;;6.18;;
32096;SDS011;18610;49.916;8.284;2023-03-20T14:03:02;14.90;;;5.05;;
32096;SDS011;18610;49.916;8.284;2023-03-20T14:05:36;10.57;;;5.75;;
32096;SDS011;18610;49.916;8.284;2023-03-20T14:08:21;10.85;;;5.80;;
32096;SDS011;18610;49.916;8.284;2023-03-20T14:10:55;9.23;;;5.28;;
32096;SDS011;18610;49.916;8.284;2023-03-20T14:13:32;13.82;;;5.30;;
32096;SDS011;18610;49.916;8.284;2023-03-20T14:16:03;16.90;;;5.38;;
32096;SDS011;18610;49.916;8.284;2023-03-20T14:18:34;9.30;;;4.55;;
32096;SDS011;18610;49.916;8.284;2023-03-20T14:21:03;15.82;;;5.57;;
32096;SDS011;18610;49.916;8.284;2023-03-20T14:23:37;11.35;;;4.85;;
32096;SDS011;18610;49.916;8.284;2023-03-20T14:26:08;9.50;;;4.53;;
32096;SDS011;18610;49.916;8.284;2023-03-20T14:28:44;9.68;;;4.38;;
32096;SDS011;18610;49.916;8.284;2023-03-20T14:31:23;11.07;;;4.60;;
32096;SDS011;18610;49.916;8.284;2023-03-20T14:33:53;12.68;;;4.88;;
32096;SDS011;18610;49.916;8.284;2023-03-20T14:36:28;8.38;;;4.70;;
32096;SDS011;18610;49.916;8.284;2023-03-20T14:39:09;8.73;;;4.32;;
32096;SDS011;18610;49.916;8.284;2023-03-20T14:41:49;11.32;;;5.00;;
32096;SDS011;18610;49.916;8.284;2023-03-20T14:44:28;10.13;;;4.20;;
32096;SDS011;18610;49.916;8.284;2023-03-20T14:47:06;7.75;;;4.90;;
32096;SDS011;18610;49.916;8.284;2023-03-20T14:49:47;9.30;;;4.57;;
32096;SDS011;18610;49.916;8.284;2023-03-20T14:55:27;10.52;;;5.03;;
32096;SDS011;18610;49.916;8.284;2023-03-20T14:57:56;14.38;;;4.93;;
32096;SDS011;18610;49.916;8.284;2023-03-20T15:00:27;8.18;;;3.53;;
32096;SDS011;18610;49.916;8.284;2023-03-20T15:03:02;9.85;;;3.58;;
32096;SDS011;18610;49.916;8.284;2023-03-20T15:05:32;9.48;;;3.97;;
32096;SDS011;18610;49.916;8.284;2023-03-20T15:08:03;12.45;;;3.97;;
32096;SDS011;18610;49.916;8.284;2023-03-20T15:10:33;9.82;;;4.00;;